createdAt,value
2022-09-23T00:01:12.450Z,100356.84
2022-09-23T00:03:42.333Z,100364.13
2022-09-23T00:06:11.773Z,100363.06
2022-09-23T00:08:39.558Z,100362.69
2022-09-23T00:11:09.075Z,100353.38
2022-09-23T00:13:38.129Z,100345.34
2022-09-23T00:16:06.161Z,100349.22
2022-09-23T00:18:35.305Z,100347.69
2022-09-23T00:21:04.157Z,100346.13
2022-09-23T00:23:31.921Z,100344.25
2022-09-23T00:26:00.308Z,100333.50
2022-09-23T00:28:27.729Z,100344.19
2022-09-23T00:30:55.260Z,100342.13
2022-09-23T00:33:22.803Z,100338.22
2022-09-23T00:35:51.554Z,100340.09
2022-09-23T00:38:21.677Z,100341.72
2022-09-23T00:40:49.339Z,100333.13
2022-09-23T00:43:17.197Z,100336.16
2022-09-23T00:45:48.244Z,100336.16
2022-09-23T00:48:18.042Z,100330.78
2022-09-23T00:50:52.653Z,100330.63
2022-09-23T00:53:22.570Z,100331.34
2022-09-23T00:55:52.451Z,100328.19
2022-09-23T00:58:22.817Z,100335.16
2022-09-23T01:00:50.494Z,100323.06
2022-09-23T01:03:18.766Z,100320.25
2022-09-23T01:05:46.555Z,100319.41
2022-09-23T01:08:15.524Z,100317.88
2022-09-23T01:10:48.756Z,100309.56
2022-09-23T01:13:21.113Z,100316.13
2022-09-23T01:15:51.348Z,100312.34
2022-09-23T01:18:26.572Z,100305.91
2022-09-23T01:20:59.228Z,100309.28
2022-09-23T01:23:44.857Z,100301.69
2022-09-23T01:26:21.608Z,100297.84
2022-09-23T01:29:07.501Z,100305.75
2022-09-23T01:31:39.771Z,100296.13
2022-09-23T01:34:11.833Z,100298.50
2022-09-23T01:36:42.013Z,100288.03
2022-09-23T01:39:12.721Z,100295.22
2022-09-23T01:41:47.985Z,100295.63
2022-09-23T01:44:20.353Z,100287.13
2022-09-23T01:46:53.153Z,100292.25
2022-09-23T01:49:23.895Z,100291.72
2022-09-23T01:51:54.492Z,100285.16
2022-09-23T01:54:26.810Z,100284.75
2022-09-23T01:56:59.869Z,100285.84
2022-09-23T01:59:32.612Z,100276.94
2022-09-23T02:02:04.810Z,100269.00
2022-09-23T02:04:39.401Z,100275.56
2022-09-23T02:07:10.497Z,100270.13
2022-09-23T02:09:40.977Z,100270.56
2022-09-23T02:12:12.633Z,100267.09
2022-09-23T02:14:43.820Z,100271.94
2022-09-23T02:17:14.206Z,100270.97
2022-09-23T02:19:46.465Z,100271.81
2022-09-23T02:22:16.536Z,100264.84
2022-09-23T02:24:44.984Z,100269.28
2022-09-23T02:27:18.265Z,100276.25
2022-09-23T02:29:50.502Z,100268.44
2022-09-23T02:32:22.746Z,100267.00
2022-09-23T02:34:57.373Z,100264.53
2022-09-23T02:37:28.819Z,100259.91
2022-09-23T02:40:01.250Z,100259.47
2022-09-23T02:42:35.586Z,100259.47
2022-09-23T02:45:03.194Z,100267.94
2022-09-23T02:47:33.441Z,100259.31
2022-09-23T02:50:00.956Z,100268.34
2022-09-23T02:52:28.449Z,100264.56
2022-09-23T02:54:56.109Z,100259.25
2022-09-23T02:57:23.605Z,100260.59
2022-09-23T02:59:51.009Z,100259.94
2022-09-23T03:02:39.765Z,100259.47
2022-09-23T03:05:12.629Z,100261.53
2022-09-23T03:07:47.222Z,100256.50
2022-09-23T03:10:19.006Z,100256.13
2022-09-23T03:12:52.806Z,100248.59
2022-09-23T03:15:26.065Z,100248.31
2022-09-23T03:18:00.759Z,100245.84
2022-09-23T03:20:34.103Z,100244.41
2022-09-23T03:23:04.742Z,100240.66
2022-09-23T03:25:35.962Z,100235.66
2022-09-23T03:28:04.203Z,100238.09
2022-09-23T03:30:35.474Z,100228.34
2022-09-23T03:33:05.975Z,100241.56
2022-09-23T03:35:55.925Z,100235.13
2022-09-23T03:38:26.091Z,100243.81
2022-09-23T03:40:55.331Z,100237.97
2022-09-23T03:43:22.849Z,100229.00
2022-09-23T03:45:54.522Z,100226.94
2022-09-23T03:48:23.557Z,100225.81
2022-09-23T03:50:50.939Z,100214.69
2022-09-23T03:53:21.013Z,100211.72
2022-09-23T03:55:48.441Z,100205.28
2022-09-23T03:58:15.983Z,100203.16
2022-09-23T04:00:45.076Z,100205.06
2022-09-23T04:03:12.494Z,100201.72
2022-09-23T04:05:41.213Z,100204.38
2022-09-23T04:08:08.821Z,100203.84
2022-09-23T04:10:36.327Z,100197.72
2022-09-23T04:13:03.844Z,100189.38
2022-09-23T04:15:31.237Z,100192.34
2022-09-23T04:17:58.586Z,100189.34
2022-09-23T04:20:29.615Z,100191.00
2022-09-23T04:22:58.334Z,100188.34
2022-09-23T04:25:25.688Z,100190.22
2022-09-23T04:27:53.037Z,100184.41
2022-09-23T04:30:20.428Z,100184.69
2022-09-23T04:32:47.767Z,100179.03
2022-09-23T04:35:15.173Z,100174.94
2022-09-23T04:37:42.681Z,100173.91
2022-09-23T04:40:11.885Z,100178.69
2022-09-23T04:42:39.526Z,100171.28
2022-09-23T04:45:07.897Z,100171.41
2022-09-23T04:47:35.257Z,100163.09
2022-09-23T04:50:02.782Z,100169.16
2022-09-23T04:52:32.045Z,100174.16
2022-09-23T04:54:59.449Z,100167.19
2022-09-23T04:57:29.817Z,100168.16
2022-09-23T04:59:57.273Z,100173.03
2022-09-23T05:02:25.215Z,100159.56
2022-09-23T05:04:52.657Z,100169.53
2022-09-23T05:07:20.057Z,100163.22
2022-09-23T05:09:47.689Z,100177.78
2022-09-23T05:12:15.078Z,100169.38
2022-09-23T05:14:43.812Z,100167.19
2022-09-23T05:17:11.701Z,100166.66
2022-09-23T05:19:39.053Z,100168.25
2022-09-23T05:22:06.490Z,100163.13
2022-09-23T05:24:33.897Z,100166.59
2022-09-23T05:27:01.863Z,100168.41
2022-09-23T05:29:29.221Z,100164.31
2022-09-23T05:31:58.021Z,100165.38
2022-09-23T05:34:25.528Z,100161.38
2022-09-23T05:36:53.036Z,100167.41
2022-09-23T05:39:20.441Z,100169.06
2022-09-23T05:41:48.927Z,100171.00
2022-09-23T05:44:16.352Z,100160.63
2022-09-23T05:46:43.774Z,100166.38
2022-09-23T05:49:12.507Z,100161.31
2022-09-23T05:51:40.107Z,100164.19
2022-09-23T05:54:08.223Z,100164.31
2022-09-23T05:56:37.091Z,100165.84
2022-09-23T05:59:05.662Z,100171.28
2022-09-23T06:01:35.184Z,100165.09
2022-09-23T06:04:04.353Z,100160.63
2022-09-23T06:06:34.982Z,100158.78
2022-09-23T06:09:03.312Z,100156.75
2022-09-23T06:11:31.342Z,100153.44
2022-09-23T06:14:00.943Z,100150.91
2022-09-23T06:16:29.335Z,100150.13
2022-09-23T06:18:58.154Z,100151.19
2022-09-23T06:21:28.095Z,100143.69
2022-09-23T06:23:57.310Z,100144.75
2022-09-23T06:26:24.915Z,100141.44
2022-09-23T06:28:52.460Z,100147.63
2022-09-23T06:31:19.968Z,100140.53
2022-09-23T06:33:47.441Z,100145.28
2022-09-23T06:36:27.798Z,100158.44
2022-09-23T06:39:03.371Z,100158.41
2022-09-23T06:41:30.849Z,100165.22
2022-09-23T06:43:58.956Z,100157.22
2022-09-23T06:46:26.311Z,100162.06
2022-09-23T06:48:53.693Z,100164.59
2022-09-23T06:51:21.598Z,100163.91
2022-09-23T06:53:49.795Z,100163.38
2022-09-23T06:56:19.746Z,100151.31
2022-09-23T06:58:47.379Z,100162.16
2022-09-23T07:01:17.182Z,100164.63
2022-09-23T07:03:45.245Z,100160.16
2022-09-23T07:06:12.691Z,100155.88
2022-09-23T07:08:43.834Z,100155.16
2022-09-23T07:11:13.076Z,100155.16
2022-09-23T07:13:44.822Z,100155.44
2022-09-23T07:16:12.744Z,100149.69
2022-09-23T07:18:41.237Z,100152.75
2022-09-23T07:21:10.289Z,100149.75
2022-09-23T07:23:38.751Z,100151.47
2022-09-23T07:26:07.729Z,100150.63
2022-09-23T07:28:36.949Z,100155.69
2022-09-23T07:33:34.596Z,100155.66
2022-09-23T07:36:05.712Z,100158.19
2022-09-23T07:38:33.122Z,100157.59
2022-09-23T07:41:06.440Z,100151.78
2022-09-23T07:43:33.929Z,100149.81
2022-09-23T07:46:02.146Z,100150.28
2022-09-23T07:48:34.080Z,100141.81
2022-09-23T07:51:07.613Z,100140.50
2022-09-23T07:53:35.657Z,100145.81
2022-09-23T07:56:06.363Z,100152.34
2022-09-23T07:58:34.826Z,100147.09
2022-09-23T08:01:03.638Z,100144.41
2022-09-23T08:03:31.029Z,100144.53
2022-09-23T08:06:06.505Z,100146.69
2022-09-23T08:08:34.262Z,100152.75
2022-09-23T08:11:03.390Z,100155.19
2022-09-23T08:13:31.240Z,100148.19
2022-09-23T08:15:59.185Z,100137.88
2022-09-23T08:18:26.849Z,100139.31
2022-09-23T08:20:54.349Z,100136.81
2022-09-23T08:23:23.163Z,100139.88
2022-09-23T08:25:59.552Z,100136.47
2022-09-23T08:28:28.975Z,100136.75
2022-09-23T08:30:56.927Z,100140.28
2022-09-23T08:33:25.153Z,100139.91
2022-09-23T08:35:53.055Z,100137.19
2022-09-23T08:38:20.847Z,100135.03
2022-09-23T08:40:50.470Z,100132.16
2022-09-23T08:43:27.507Z,100139.00
2022-09-23T08:45:56.587Z,100134.31
2022-09-23T08:48:29.274Z,100125.91
2022-09-23T08:51:00.788Z,100129.97
2022-09-23T08:53:29.901Z,100129.13
2022-09-23T08:55:59.979Z,100132.00
2022-09-23T08:58:37.823Z,100137.44
2022-09-23T09:01:14.026Z,100127.44
2022-09-23T09:03:45.697Z,100134.91
2022-09-23T09:06:17.738Z,100130.81
2022-09-23T09:08:50.132Z,100124.91
2022-09-23T09:11:19.830Z,100130.31
2022-09-23T09:13:54.779Z,100125.91
2022-09-23T09:16:58.940Z,100128.63
2022-09-23T09:19:40.573Z,100126.63
2022-09-23T09:22:09.204Z,100121.81
2022-09-23T09:24:36.870Z,100125.41
2022-09-23T09:27:12.263Z,100119.00
2022-09-23T09:29:43.370Z,100112.41
2022-09-23T09:32:17.734Z,100116.09
2022-09-23T09:34:48.652Z,100106.63
2022-09-23T09:37:19.957Z,100104.47
2022-09-23T09:39:47.490Z,100107.41
2022-09-23T09:42:20.179Z,100119.78
2022-09-23T09:44:52.657Z,100103.94
2022-09-23T09:47:31.898Z,100100.19
2022-09-23T09:50:06.586Z,100105.22
2022-09-23T09:52:34.141Z,100102.31
2022-09-23T09:55:23.522Z,100100.00
2022-09-23T09:57:54.243Z,100091.13
2022-09-23T10:00:43.879Z,100092.38
2022-09-23T10:03:33.130Z,100080.00
2022-09-23T10:06:00.589Z,100088.78
2022-09-23T10:08:32.207Z,100069.28
2022-09-23T10:11:03.085Z,100071.91
2022-09-23T10:13:32.559Z,100068.81
2022-09-23T10:16:03.974Z,100071.13
2022-09-23T10:18:32.790Z,100072.09
2022-09-23T10:21:08.535Z,100074.00
2022-09-23T10:23:40.276Z,100071.81
2022-09-23T10:26:10.180Z,100069.66
2022-09-23T10:28:50.209Z,100069.34
2022-09-23T10:31:24.934Z,100069.78
2022-09-23T10:33:54.579Z,100062.41
2022-09-23T10:36:22.378Z,100059.69
2022-09-23T10:38:51.232Z,100060.06
2022-09-23T10:41:46.904Z,100063.91
2022-09-23T10:44:41.993Z,100064.09
2022-09-23T10:47:17.873Z,100048.06
2022-09-23T10:50:11.119Z,100053.81
2022-09-23T10:52:46.035Z,100057.50
2022-09-23T10:55:23.970Z,100051.00
2022-09-23T10:57:59.789Z,100051.59
2022-09-23T11:00:36.182Z,100050.06
2022-09-23T11:03:36.484Z,100051.94
2022-09-23T11:06:13.090Z,100044.69
2022-09-23T11:08:52.958Z,100045.03
2022-09-23T11:11:29.979Z,100042.97
2022-09-23T11:14:06.595Z,100049.91
2022-09-23T11:16:42.697Z,100042.31
2022-09-23T11:19:23.217Z,100043.47
2022-09-23T11:22:00.746Z,100030.19
2022-09-23T11:24:40.206Z,100036.38
2022-09-23T11:27:13.113Z,100037.63
2022-09-23T11:30:03.258Z,100026.38
2022-09-23T11:35:39.030Z,100016.63
2022-09-23T11:38:10.241Z,100025.25
2022-09-23T11:40:42.377Z,100011.19
2022-09-23T11:43:18.437Z,100005.63
2022-09-23T11:45:48.989Z,100001.78
2022-09-23T11:48:19.773Z,100004.88
2022-09-23T11:50:49.942Z,100005.72
2022-09-23T11:53:22.380Z,99998.44
2022-09-23T11:55:58.216Z,100000.41
2022-09-23T11:58:29.310Z,100003.09
2022-09-23T12:01:01.507Z,100003.69
2022-09-23T12:03:44.053Z,99999.38
2022-09-23T12:06:15.711Z,99995.88
2022-09-23T12:08:43.680Z,100000.81
2022-09-23T12:11:21.066Z,100004.34
2022-09-23T12:13:52.686Z,99997.09
2022-09-23T12:16:36.480Z,99991.44
2022-09-23T12:19:13.189Z,99985.72
2022-09-23T12:21:59.191Z,99986.94
2022-09-23T12:24:48.793Z,99986.50
2022-09-23T12:27:24.100Z,99979.22
2022-09-23T12:29:54.451Z,99979.53
2022-09-23T12:32:22.330Z,99975.13
2022-09-23T12:34:52.069Z,99976.09
2022-09-23T12:37:29.028Z,99978.25
2022-09-23T12:40:01.601Z,99975.28
2022-09-23T12:42:31.281Z,99969.69
2022-09-23T12:45:19.172Z,99977.50
2022-09-23T12:47:46.810Z,99969.47
2022-09-23T12:50:51.793Z,99971.63
2022-09-23T12:53:56.188Z,99962.63
2022-09-23T12:56:27.385Z,99969.63
2022-09-23T12:59:04.606Z,99966.47
2022-09-23T13:01:38.077Z,99958.47
2022-09-23T13:04:23.628Z,99964.13
2022-09-23T13:06:57.969Z,99959.25
2022-09-23T13:09:29.301Z,99952.47
2022-09-23T13:11:59.862Z,99960.09
2022-09-23T13:14:28.894Z,99959.84
2022-09-23T13:16:58.294Z,99960.31
2022-09-23T13:19:46.260Z,99965.19
2022-09-23T13:22:15.156Z,99951.56
2022-09-23T13:24:47.452Z,99954.97
2022-09-23T13:27:26.453Z,99950.50
2022-09-23T13:29:58.947Z,99950.44
2022-09-23T13:32:31.581Z,99939.56
2022-09-23T13:35:01.994Z,99938.50
2022-09-23T13:37:40.357Z,99928.25
2022-09-23T13:40:18.578Z,99933.06
2022-09-23T13:42:49.416Z,99928.47
2022-09-23T13:45:18.848Z,99936.25
2022-09-23T13:47:47.406Z,99936.56
2022-09-23T13:50:18.442Z,99921.16
2022-09-23T13:52:49.499Z,99922.09
2022-09-23T13:55:30.890Z,99928.09
2022-09-23T13:58:02.127Z,99923.00
2022-09-23T14:00:36.126Z,99922.00
2022-09-23T14:03:06.246Z,99925.69
2022-09-23T14:05:35.718Z,99928.56
2022-09-23T14:08:04.657Z,99936.25
2022-09-23T14:10:32.373Z,99916.53
2022-09-23T14:12:59.847Z,99914.59
2022-09-23T14:15:27.452Z,99906.56
2022-09-23T14:18:02.321Z,99915.19
2022-09-23T14:20:29.689Z,99899.69
2022-09-23T14:23:10.618Z,99906.78
2022-09-23T14:25:38.586Z,99892.69
2022-09-23T14:28:06.065Z,99893.31
2022-09-23T14:30:34.050Z,99894.06
2022-09-23T14:33:05.558Z,99896.09
2022-09-23T14:35:43.448Z,99891.69
2022-09-23T14:38:29.958Z,99893.59
2022-09-23T14:41:12.835Z,99890.16
2022-09-23T14:43:40.323Z,99894.19
2022-09-23T14:46:17.804Z,99887.50
2022-09-23T14:48:45.762Z,99890.56
2022-09-23T14:51:17.087Z,99897.47
2022-09-23T14:53:46.856Z,99885.72
2022-09-23T14:56:17.450Z,99892.66
2022-09-23T14:58:52.345Z,99894.16
2022-09-23T15:01:38.460Z,99895.28
2022-09-23T15:04:17.388Z,99885.50
2022-09-23T15:06:49.135Z,99883.41
2022-09-23T15:09:25.961Z,99880.44
2022-09-23T15:11:54.362Z,99876.66
2022-09-23T15:14:37.226Z,99868.84
2022-09-23T15:17:12.533Z,99871.66
2022-09-23T15:19:40.392Z,99878.00
2022-09-23T15:22:08.425Z,99867.88
2022-09-23T15:24:42.130Z,99872.34
2022-09-23T15:27:28.060Z,99867.66
2022-09-23T15:29:56.161Z,99870.81
2022-09-23T15:32:23.638Z,99862.50
2022-09-23T15:34:51.484Z,99861.06
2022-09-23T15:37:18.885Z,99871.72
2022-09-23T15:39:48.120Z,99864.75
2022-09-23T15:42:16.307Z,99872.56
2022-09-23T15:44:43.701Z,99862.41
2022-09-23T15:47:14.272Z,99872.31
2022-09-23T15:49:41.711Z,99860.13
2022-09-23T15:52:12.174Z,99866.75
2022-09-23T15:54:39.781Z,99862.59
2022-09-23T15:57:08.497Z,99859.72
2022-09-23T15:59:38.072Z,99866.47
2022-09-23T16:02:15.578Z,99865.25
2022-09-23T16:04:50.209Z,99863.81
2022-09-23T16:07:19.616Z,99862.75
2022-09-23T16:09:47.132Z,99866.28
2022-09-23T16:12:15.890Z,99848.41
2022-09-23T16:14:43.416Z,99854.63
2022-09-23T16:17:13.747Z,99854.38
2022-09-23T16:19:41.149Z,99847.38
2022-09-23T16:22:08.675Z,99843.72
2022-09-23T16:24:36.414Z,99855.66
2022-09-23T16:27:05.938Z,99859.06
2022-09-23T16:29:34.683Z,99855.19
2022-09-23T16:32:03.038Z,99852.38
2022-09-23T16:34:30.444Z,99852.56
2022-09-23T16:36:57.965Z,99853.22
2022-09-23T16:39:25.395Z,99848.94
2022-09-23T16:41:52.804Z,99861.28
2022-09-23T16:44:21.067Z,99854.94
2022-09-23T16:46:51.002Z,99856.75
2022-09-23T16:49:18.442Z,99852.88
2022-09-23T16:51:45.866Z,99854.97
2022-09-23T16:54:14.163Z,99860.38
2022-09-23T16:56:44.212Z,99857.19
2022-09-23T16:59:12.514Z,99858.13
2022-09-23T17:01:57.685Z,99859.88
2022-09-23T17:04:27.536Z,99858.78
2022-09-23T17:06:55.942Z,99867.59
2022-09-23T17:09:27.456Z,99859.34
2022-09-23T17:11:59.718Z,99860.22
2022-09-23T17:14:27.845Z,99859.38
2022-09-23T17:16:55.289Z,99864.06
2022-09-23T17:19:25.487Z,99865.81
2022-09-23T17:21:55.051Z,99862.63
2022-09-23T17:24:22.568Z,99865.25
2022-09-23T17:26:53.041Z,99864.09
2022-09-23T17:29:20.959Z,99863.94
2022-09-23T17:31:48.409Z,99859.16
2022-09-23T17:34:18.635Z,99867.88
2022-09-23T17:36:46.389Z,99863.97
2022-09-23T17:39:15.153Z,99863.41
2022-09-23T17:41:43.153Z,99859.50
2022-09-23T17:44:11.270Z,99857.13
2022-09-23T17:46:38.909Z,99853.03
2022-09-23T17:49:09.466Z,99852.63
2022-09-23T17:51:39.869Z,99848.13
2022-09-23T17:54:07.367Z,99851.06
2022-09-23T17:56:36.201Z,99849.63
2022-09-23T17:59:03.781Z,99846.72
2022-09-23T18:01:31.812Z,99847.78
2022-09-23T18:04:00.775Z,99844.94
2022-09-23T18:06:31.469Z,99851.56
2022-09-23T18:09:01.164Z,99846.81
2022-09-23T18:11:30.184Z,99842.94
2022-09-23T18:14:00.757Z,99847.25
2022-09-23T18:16:29.988Z,99850.75
2022-09-23T18:18:59.218Z,99848.69
2022-09-23T18:21:28.176Z,99847.84
2022-09-23T18:23:59.805Z,99846.41
2022-09-23T18:26:34.576Z,99839.81
2022-09-23T18:29:03.530Z,99844.38
2022-09-23T18:31:35.114Z,99844.56
2022-09-23T18:34:04.060Z,99847.47
2022-09-23T18:36:32.117Z,99846.66
2022-09-23T18:38:59.979Z,99840.28
2022-09-23T18:41:27.918Z,99845.63
2022-09-23T18:43:55.518Z,99838.00
2022-09-23T18:46:25.554Z,99837.81
2022-09-23T18:49:11.107Z,99841.50
2022-09-23T18:51:47.557Z,99841.94
2022-09-23T18:54:15.936Z,99838.22
2022-09-23T18:56:44.605Z,99836.97
2022-09-23T18:59:14.363Z,99839.28
2022-09-23T19:01:43.878Z,99842.56
2022-09-23T19:04:11.447Z,99831.25
2022-09-23T19:06:38.841Z,99837.63
2022-09-23T19:09:07.286Z,99837.41
2022-09-23T19:11:36.100Z,99839.66
2022-09-23T19:14:05.073Z,99834.91
2022-09-23T19:16:32.584Z,99833.06
2022-09-23T19:19:02.007Z,99822.97
2022-09-23T19:21:30.482Z,99825.84
2022-09-23T19:24:03.032Z,99829.56
2022-09-23T19:26:32.293Z,99828.13
2022-09-23T19:29:00.996Z,99833.09
2022-09-23T19:31:30.041Z,99833.09
2022-09-23T19:33:59.139Z,99830.59
2022-09-23T19:36:30.021Z,99819.47
2022-09-23T19:38:58.937Z,99822.78
2022-09-23T19:41:28.168Z,99825.22
2022-09-23T19:43:58.519Z,99825.88
2022-09-23T19:46:25.973Z,99822.56
2022-09-23T19:48:53.393Z,99821.97
2022-09-23T19:51:20.871Z,99825.00
2022-09-23T19:53:50.275Z,99824.22
2022-09-23T19:56:18.214Z,99829.38
2022-09-23T19:58:47.144Z,99825.25
2022-09-23T20:01:16.196Z,99822.16
2022-09-23T20:03:44.214Z,99830.81
2022-09-23T20:06:11.986Z,99828.34
2022-09-23T20:08:39.643Z,99820.72
2022-09-23T20:11:11.034Z,99813.72
2022-09-23T20:13:39.257Z,99821.72
2022-09-23T20:16:10.338Z,99814.53
2022-09-23T20:18:38.346Z,99808.75
2022-09-23T20:21:06.075Z,99815.56
2022-09-23T20:23:33.472Z,99810.00
2022-09-23T20:26:20.013Z,99810.41
2022-09-23T20:28:49.339Z,99810.63
2022-09-23T20:31:17.902Z,99803.81
2022-09-23T20:33:46.053Z,99810.22
2022-09-23T20:36:13.850Z,99808.97
2022-09-23T20:38:41.404Z,99795.38
2022-09-23T20:41:09.284Z,99795.78
2022-09-23T20:43:36.822Z,99783.03
2022-09-23T20:46:06.120Z,99792.91
2022-09-23T20:48:33.703Z,99793.53
2022-09-23T20:51:01.966Z,99796.63
2022-09-23T20:53:29.371Z,99798.66
2022-09-23T20:55:58.203Z,99803.31
2022-09-23T20:58:26.918Z,99806.84
2022-09-23T21:00:54.532Z,99810.75
2022-09-23T21:03:24.039Z,99809.97
2022-09-23T21:05:51.757Z,99807.84
2022-09-23T21:08:19.300Z,99818.16
2022-09-23T21:10:54.419Z,99821.72
2022-09-23T21:13:21.891Z,99810.69
2022-09-23T21:15:49.321Z,99814.16
2022-09-23T21:18:21.695Z,99808.16
2022-09-23T21:20:57.528Z,99808.56
2022-09-23T21:23:26.975Z,99811.28
2022-09-23T21:26:01.406Z,99798.53
2022-09-23T21:28:32.774Z,99802.66
2022-09-23T21:31:00.893Z,99803.50
2022-09-23T21:33:28.389Z,99798.53
2022-09-23T21:35:57.699Z,99802.72
2022-09-23T21:38:25.403Z,99805.00
2022-09-23T21:41:00.730Z,99805.81
2022-09-23T21:43:29.481Z,99805.16
2022-09-23T21:45:59.494Z,99805.56
2022-09-23T21:48:31.089Z,99807.44
2022-09-23T21:51:02.057Z,99804.63
2022-09-23T21:53:30.879Z,99807.09
2022-09-23T21:56:03.326Z,99803.84
2022-09-23T21:58:31.319Z,99801.56
2022-09-23T22:00:59.030Z,99808.97
2022-09-23T22:03:26.579Z,99814.31
2022-09-23T22:06:04.115Z,99805.25
2022-09-23T22:08:34.718Z,99802.59
2022-09-23T22:11:02.799Z,99800.53
2022-09-23T22:13:30.277Z,99796.00
2022-09-23T22:16:01.335Z,99792.06
2022-09-23T22:18:29.147Z,99792.06
2022-09-23T22:20:57.728Z,99798.88
2022-09-23T22:23:26.494Z,99792.50
2022-09-23T22:26:02.831Z,99800.75
2022-09-23T22:28:50.813Z,99789.00
2022-09-23T22:31:36.038Z,99792.28
2022-09-23T22:34:03.681Z,99798.25
2022-09-23T22:36:31.342Z,99797.66
2022-09-23T22:39:02.947Z,99792.91
2022-09-23T22:41:31.352Z,99793.94
2022-09-23T22:44:00.164Z,99792.69
2022-09-23T22:46:27.970Z,99795.19
2022-09-23T22:48:55.397Z,99797.53
2022-09-23T22:51:23.803Z,99790.16
2022-09-23T22:53:52.628Z,99785.22
2022-09-23T22:56:21.475Z,99786.44
2022-09-23T22:58:48.899Z,99782.75
2022-09-23T23:01:16.361Z,99780.28
2022-09-23T23:03:45.612Z,99773.25
2022-09-23T23:06:13.023Z,99778.63
2022-09-23T23:08:40.522Z,99768.94
2022-09-23T23:11:09.897Z,99770.16
2022-09-23T23:13:41.709Z,99764.81
2022-09-23T23:16:11.607Z,99767.91
2022-09-23T23:18:40.865Z,99759.44
2022-09-23T23:21:09.963Z,99763.13
2022-09-23T23:23:39.285Z,99758.78
2022-09-23T23:26:11.843Z,99754.06
2022-09-23T23:28:41.052Z,99751.19
2022-09-23T23:31:09.755Z,99752.66
2022-09-23T23:33:37.539Z,99746.91
2022-09-23T23:36:05.994Z,99752.28
2022-09-23T23:38:34.913Z,99749.81
2022-09-23T23:41:03.024Z,99754.13
2022-09-23T23:43:30.496Z,99757.59
2022-09-23T23:46:00.272Z,99758.41
2022-09-23T23:48:28.874Z,99750.16
2022-09-23T23:50:56.904Z,99740.50
2022-09-23T23:53:24.485Z,99742.81
2022-09-23T23:55:52.262Z,99741.16
2022-09-23T23:58:19.640Z,99743.44
